Kotor-Varos, Bosnia and Herzegovina
Current Conditions -  °F | °C
As of 9:00 PM on Thursday 29 Jan 2015 (Local Time) from LQTZ Reporting Station
Haze Haze  
Wind Chill: 34°   Ceiling: 5500
Heat Index: 34°   Visibility: 1.8mi
Dew Point: 34°   Wind: 3mph
Humidity: 100%   Direction: 90°E
Pressure: 29.47"   Gusts: NA
Location:  44.62°N, 17.37°E
Report Text: LQTZ 291900Z 09003KT 3000 BR SCT005 BKN055 01/01 Q0998
Loading
Personal Weather Stations






























Interactive Weather Map New forecast layout! Learn more

10-Day Weather Forecast

Advertisements
Track Severe Weather on mobile